sensor_id;sensor_type;location;lat;lon;timestamp;P1;durP1;ratioP1;P2;durP2;ratioP2
48002;SDS011;33768;48.578;11.574;2022-11-15T00:00:15;9.97;;;7.23;;
48002;SDS011;33768;48.578;11.574;2022-11-15T00:03:38;8.50;;;7.03;;
48002;SDS011;33768;48.578;11.574;2022-11-15T00:07:00;10.03;;;7.20;;
48002;SDS011;33768;48.578;11.574;2022-11-15T00:10:23;12.63;;;6.80;;
48002;SDS011;33768;48.578;11.574;2022-11-15T00:13:45;11.33;;;6.97;;
48002;SDS011;33768;48.578;11.574;2022-11-15T00:17:07;8.77;;;6.57;;
48002;SDS011;33768;48.578;11.574;2022-11-15T00:20:30;10.33;;;6.83;;
48002;SDS011;33768;48.578;11.574;2022-11-15T00:23:52;9.63;;;6.97;;
48002;SDS011;33768;48.578;11.574;2022-11-15T00:27:15;9.00;;;6.87;;
48002;SDS011;33768;48.578;11.574;2022-11-15T00:30:37;8.33;;;6.80;;
48002;SDS011;33768;48.578;11.574;2022-11-15T00:34:00;8.50;;;6.60;;
48002;SDS011;33768;48.578;11.574;2022-11-15T00:37:22;8.63;;;6.33;;
48002;SDS011;33768;48.578;11.574;2022-11-15T00:40:45;10.60;;;7.10;;
48002;SDS011;33768;48.578;11.574;2022-11-15T00:44:07;7.87;;;6.87;;
48002;SDS011;33768;48.578;11.574;2022-11-15T00:47:30;7.70;;;6.53;;
48002;SDS011;33768;48.578;11.574;2022-11-15T00:50:52;9.10;;;6.40;;
48002;SDS011;33768;48.578;11.574;2022-11-15T00:54:15;9.47;;;6.20;;
48002;SDS011;33768;48.578;11.574;2022-11-15T00:57:38;8.23;;;5.87;;
48002;SDS011;33768;48.578;11.574;2022-11-15T01:01:07;6.73;;;5.67;;
48002;SDS011;33768;48.578;11.574;2022-11-15T01:04:34;9.33;;;6.87;;
48002;SDS011;33768;48.578;11.574;2022-11-15T01:07:57;9.70;;;6.93;;
48002;SDS011;33768;48.578;11.574;2022-11-15T01:11:20;9.27;;;6.50;;
48002;SDS011;33768;48.578;11.574;2022-11-15T01:14:42;10.23;;;6.60;;
48002;SDS011;33768;48.578;11.574;2022-11-15T01:18:05;11.43;;;7.33;;
48002;SDS011;33768;48.578;11.574;2022-11-15T01:21:28;14.17;;;7.40;;
48002;SDS011;33768;48.578;11.574;2022-11-15T01:24:50;12.03;;;6.73;;
48002;SDS011;33768;48.578;11.574;2022-11-15T01:28:12;13.93;;;8.13;;
48002;SDS011;33768;48.578;11.574;2022-11-15T01:31:35;9.50;;;6.73;;
48002;SDS011;33768;48.578;11.574;2022-11-15T01:34:57;8.27;;;6.90;;
48002;SDS011;33768;48.578;11.574;2022-11-15T01:38:20;12.10;;;6.83;;
48002;SDS011;33768;48.578;11.574;2022-11-15T01:41:42;9.93;;;6.93;;
48002;SDS011;33768;48.578;11.574;2022-11-15T01:45:05;9.03;;;6.80;;
48002;SDS011;33768;48.578;11.574;2022-11-15T01:48:30;9.63;;;7.00;;
48002;SDS011;33768;48.578;11.574;2022-11-15T01:51:55;7.83;;;6.13;;
48002;SDS011;33768;48.578;11.574;2022-11-15T01:55:20;8.37;;;6.40;;
48002;SDS011;33768;48.578;11.574;2022-11-15T01:58:45;12.80;;;6.57;;
48002;SDS011;33768;48.578;11.574;2022-11-15T02:02:08;10.20;;;5.97;;
48002;SDS011;33768;48.578;11.574;2022-11-15T02:05:30;7.63;;;6.63;;
48002;SDS011;33768;48.578;11.574;2022-11-15T02:08:54;8.83;;;6.30;;
48002;SDS011;33768;48.578;11.574;2022-11-15T02:12:19;7.20;;;6.00;;
48002;SDS011;33768;48.578;11.574;2022-11-15T02:15:52;8.63;;;6.50;;
48002;SDS011;33768;48.578;11.574;2022-11-15T02:23:04;9.53;;;6.90;;
48002;SDS011;33768;48.578;11.574;2022-11-15T02:26:50;8.47;;;6.87;;
48002;SDS011;33768;48.578;11.574;2022-11-15T02:34:38;10.23;;;7.27;;
48002;SDS011;33768;48.578;11.574;2022-11-15T02:38:25;8.33;;;6.57;;
48002;SDS011;33768;48.578;11.574;2022-11-15T02:42:04;8.83;;;6.47;;
48002;SDS011;33768;48.578;11.574;2022-11-15T02:50:32;10.27;;;6.87;;
48002;SDS011;33768;48.578;11.574;2022-11-15T02:53:55;8.23;;;6.23;;
48002;SDS011;33768;48.578;11.574;2022-11-15T02:57:18;8.60;;;6.67;;
48002;SDS011;33768;48.578;11.574;2022-11-15T03:00:58;8.90;;;6.67;;
48002;SDS011;33768;48.578;11.574;2022-11-15T03:04:37;9.57;;;6.47;;
48002;SDS011;33768;48.578;11.574;2022-11-15T03:11:50;10.73;;;6.93;;
48002;SDS011;33768;48.578;11.574;2022-11-15T03:15:21;7.67;;;6.30;;
48002;SDS011;33768;48.578;11.574;2022-11-15T03:18:53;11.77;;;6.70;;
48002;SDS011;33768;48.578;11.574;2022-11-15T03:22:22;9.23;;;6.60;;
48002;SDS011;33768;48.578;11.574;2022-11-15T03:25:48;9.03;;;6.63;;
48002;SDS011;33768;48.578;11.574;2022-11-15T03:29:17;9.40;;;6.07;;
48002;SDS011;33768;48.578;11.574;2022-11-15T03:32:47;8.27;;;6.03;;
48002;SDS011;33768;48.578;11.574;2022-11-15T03:36:12;9.33;;;6.10;;
48002;SDS011;33768;48.578;11.574;2022-11-15T03:39:34;7.63;;;5.83;;
48002;SDS011;33768;48.578;11.574;2022-11-15T03:43:11;7.30;;;6.10;;
48002;SDS011;33768;48.578;11.574;2022-11-15T03:46:42;8.67;;;6.13;;
48002;SDS011;33768;48.578;11.574;2022-11-15T03:50:20;9.67;;;6.20;;
48002;SDS011;33768;48.578;11.574;2022-11-15T03:53:45;10.00;;;6.43;;
48002;SDS011;33768;48.578;11.574;2022-11-15T03:57:08;9.20;;;6.37;;
48002;SDS011;33768;48.578;11.574;2022-11-15T04:00:30;7.83;;;5.33;;
48002;SDS011;33768;48.578;11.574;2022-11-15T04:03:53;8.37;;;6.17;;
48002;SDS011;33768;48.578;11.574;2022-11-15T04:07:15;8.17;;;6.60;;
48002;SDS011;33768;48.578;11.574;2022-11-15T04:10:38;7.20;;;5.47;;
48002;SDS011;33768;48.578;11.574;2022-11-15T04:14:01;8.77;;;6.40;;
48002;SDS011;33768;48.578;11.574;2022-11-15T04:17:24;6.20;;;5.20;;
48002;SDS011;33768;48.578;11.574;2022-11-15T04:20:46;9.90;;;5.57;;
48002;SDS011;33768;48.578;11.574;2022-11-15T04:24:28;7.90;;;5.60;;
48002;SDS011;33768;48.578;11.574;2022-11-15T04:27:50;7.33;;;5.80;;
48002;SDS011;33768;48.578;11.574;2022-11-15T04:31:13;8.17;;;5.73;;
48002;SDS011;33768;48.578;11.574;2022-11-15T04:34:35;8.40;;;5.73;;
48002;SDS011;33768;48.578;11.574;2022-11-15T04:37:58;8.73;;;5.60;;
48002;SDS011;33768;48.578;11.574;2022-11-15T04:41:22;7.70;;;5.70;;
48002;SDS011;33768;48.578;11.574;2022-11-15T04:44:44;9.03;;;6.20;;
48002;SDS011;33768;48.578;11.574;2022-11-15T04:48:07;9.73;;;6.70;;
48002;SDS011;33768;48.578;11.574;2022-11-15T04:51:30;9.00;;;6.80;;
48002;SDS011;33768;48.578;11.574;2022-11-15T04:54:52;7.93;;;6.43;;
48002;SDS011;33768;48.578;11.574;2022-11-15T04:58:15;8.37;;;6.27;;
48002;SDS011;33768;48.578;11.574;2022-11-15T05:01:37;8.50;;;6.27;;
48002;SDS011;33768;48.578;11.574;2022-11-15T05:05:00;10.33;;;6.27;;
48002;SDS011;33768;48.578;11.574;2022-11-15T05:08:22;7.80;;;5.63;;
48002;SDS011;33768;48.578;11.574;2022-11-15T05:11:44;8.23;;;5.97;;
48002;SDS011;33768;48.578;11.574;2022-11-15T05:15:07;9.67;;;6.20;;
48002;SDS011;33768;48.578;11.574;2022-11-15T05:18:30;10.43;;;6.17;;
48002;SDS011;33768;48.578;11.574;2022-11-15T05:21:53;7.93;;;6.17;;
48002;SDS011;33768;48.578;11.574;2022-11-15T05:25:15;7.33;;;5.60;;
48002;SDS011;33768;48.578;11.574;2022-11-15T05:28:38;10.93;;;7.33;;
48002;SDS011;33768;48.578;11.574;2022-11-15T05:32:02;36.90;;;20.30;;
48002;SDS011;33768;48.578;11.574;2022-11-15T05:35:31;27.47;;;17.00;;
48002;SDS011;33768;48.578;11.574;2022-11-15T05:39:04;26.20;;;16.83;;
48002;SDS011;33768;48.578;11.574;2022-11-15T05:42:28;17.93;;;10.97;;
48002;SDS011;33768;48.578;11.574;2022-11-15T05:45:52;11.00;;;7.47;;
48002;SDS011;33768;48.578;11.574;2022-11-15T05:49:15;8.20;;;6.37;;
48002;SDS011;33768;48.578;11.574;2022-11-15T05:52:40;8.57;;;5.23;;
48002;SDS011;33768;48.578;11.574;2022-11-15T05:56:04;8.07;;;5.40;;
48002;SDS011;33768;48.578;11.574;2022-11-15T05:59:29;6.70;;;5.40;;
48002;SDS011;33768;48.578;11.574;2022-11-15T06:02:52;8.17;;;5.90;;
48002;SDS011;33768;48.578;11.574;2022-11-15T06:06:15;8.30;;;6.00;;
48002;SDS011;33768;48.578;11.574;2022-11-15T06:09:37;7.63;;;6.57;;
48002;SDS011;33768;48.578;11.574;2022-11-15T06:13:01;8.20;;;6.77;;
48002;SDS011;33768;48.578;11.574;2022-11-15T06:16:24;8.80;;;6.37;;
48002;SDS011;33768;48.578;11.574;2022-11-15T06:19:47;8.03;;;5.60;;
48002;SDS011;33768;48.578;11.574;2022-11-15T06:23:09;8.23;;;6.40;;
48002;SDS011;33768;48.578;11.574;2022-11-15T06:26:32;7.17;;;5.80;;
48002;SDS011;33768;48.578;11.574;2022-11-15T06:29:54;9.30;;;6.40;;
48002;SDS011;33768;48.578;11.574;2022-11-15T06:33:17;8.53;;;6.30;;
48002;SDS011;33768;48.578;11.574;2022-11-15T06:36:40;7.30;;;5.80;;
48002;SDS011;33768;48.578;11.574;2022-11-15T06:40:02;9.27;;;6.07;;
48002;SDS011;33768;48.578;11.574;2022-11-15T06:43:25;8.23;;;6.20;;
48002;SDS011;33768;48.578;11.574;2022-11-15T06:46:47;7.77;;;5.70;;
48002;SDS011;33768;48.578;11.574;2022-11-15T06:50:10;8.83;;;5.67;;
48002;SDS011;33768;48.578;11.574;2022-11-15T06:53:33;6.73;;;5.30;;
48002;SDS011;33768;48.578;11.574;2022-11-15T06:56:55;8.47;;;5.90;;
48002;SDS011;33768;48.578;11.574;2022-11-15T07:00:18;9.40;;;6.27;;
48002;SDS011;33768;48.578;11.574;2022-11-15T07:03:42;10.60;;;6.97;;
48002;SDS011;33768;48.578;11.574;2022-11-15T07:07:05;11.23;;;7.10;;
48002;SDS011;33768;48.578;11.574;2022-11-15T07:10:27;11.27;;;8.63;;
48002;SDS011;33768;48.578;11.574;2022-11-15T07:13:51;18.70;;;11.63;;
48002;SDS011;33768;48.578;11.574;2022-11-15T07:17:13;18.50;;;11.40;;
48002;SDS011;33768;48.578;11.574;2022-11-15T07:20:36;11.07;;;8.60;;
48002;SDS011;33768;48.578;11.574;2022-11-15T07:23:59;19.07;;;12.27;;
48002;SDS011;33768;48.578;11.574;2022-11-15T07:27:21;47.47;;;15.00;;
48002;SDS011;33768;48.578;11.574;2022-11-15T07:30:43;17.60;;;11.40;;
48002;SDS011;33768;48.578;11.574;2022-11-15T07:34:06;14.73;;;9.47;;
48002;SDS011;33768;48.578;11.574;2022-11-15T07:37:28;14.40;;;8.90;;
48002;SDS011;33768;48.578;11.574;2022-11-15T07:40:55;12.97;;;8.23;;
48002;SDS011;33768;48.578;11.574;2022-11-15T07:44:21;9.73;;;7.00;;
48002;SDS011;33768;48.578;11.574;2022-11-15T07:47:47;13.03;;;7.40;;
48002;SDS011;33768;48.578;11.574;2022-11-15T07:51:12;10.70;;;6.47;;
48002;SDS011;33768;48.578;11.574;2022-11-15T07:54:36;8.97;;;6.53;;
48002;SDS011;33768;48.578;11.574;2022-11-15T07:58:06;11.13;;;7.80;;
48002;SDS011;33768;48.578;11.574;2022-11-15T08:01:32;9.93;;;7.00;;
48002;SDS011;33768;48.578;11.574;2022-11-15T08:04:55;9.30;;;6.67;;
48002;SDS011;33768;48.578;11.574;2022-11-15T08:08:17;10.40;;;6.50;;
48002;SDS011;33768;48.578;11.574;2022-11-15T08:11:40;9.10;;;6.27;;
48002;SDS011;33768;48.578;11.574;2022-11-15T08:15:03;9.40;;;6.53;;
48002;SDS011;33768;48.578;11.574;2022-11-15T08:18:26;7.17;;;6.03;;
48002;SDS011;33768;48.578;11.574;2022-11-15T08:21:48;10.13;;;7.63;;
48002;SDS011;33768;48.578;11.574;2022-11-15T08:25:11;10.50;;;7.10;;
48002;SDS011;33768;48.578;11.574;2022-11-15T08:28:33;14.00;;;7.10;;
48002;SDS011;33768;48.578;11.574;2022-11-15T08:31:56;11.43;;;7.13;;
48002;SDS011;33768;48.578;11.574;2022-11-15T08:35:19;10.47;;;7.70;;
48002;SDS011;33768;48.578;11.574;2022-11-15T08:38:43;8.37;;;7.00;;
48002;SDS011;33768;48.578;11.574;2022-11-15T08:42:05;13.47;;;8.80;;
48002;SDS011;33768;48.578;11.574;2022-11-15T08:45:28;10.67;;;8.13;;
48002;SDS011;33768;48.578;11.574;2022-11-15T08:48:51;10.80;;;8.27;;
48002;SDS011;33768;48.578;11.574;2022-11-15T08:52:14;9.43;;;6.80;;
48002;SDS011;33768;48.578;11.574;2022-11-15T08:55:37;7.57;;;6.00;;
48002;SDS011;33768;48.578;11.574;2022-11-15T08:59:01;8.93;;;6.07;;
48002;SDS011;33768;48.578;11.574;2022-11-15T09:02:23;8.33;;;5.40;;
48002;SDS011;33768;48.578;11.574;2022-11-15T09:05:46;7.73;;;5.00;;
48002;SDS011;33768;48.578;11.574;2022-11-15T09:09:08;6.70;;;4.87;;
48002;SDS011;33768;48.578;11.574;2022-11-15T09:12:31;8.03;;;5.73;;
48002;SDS011;33768;48.578;11.574;2022-11-15T09:15:56;7.17;;;6.33;;
48002;SDS011;33768;48.578;11.574;2022-11-15T09:19:20;11.60;;;7.53;;
48002;SDS011;33768;48.578;11.574;2022-11-15T09:22:43;11.33;;;8.37;;
48002;SDS011;33768;48.578;11.574;2022-11-15T09:26:05;13.03;;;8.70;;
48002;SDS011;33768;48.578;11.574;2022-11-15T09:29:28;13.77;;;9.20;;
48002;SDS011;33768;48.578;11.574;2022-11-15T09:32:51;9.63;;;7.33;;
48002;SDS011;33768;48.578;11.574;2022-11-15T09:36:13;7.80;;;6.60;;
48002;SDS011;33768;48.578;11.574;2022-11-15T09:39:35;8.07;;;5.93;;
48002;SDS011;33768;48.578;11.574;2022-11-15T09:43:06;6.87;;;5.17;;
48002;SDS011;33768;48.578;11.574;2022-11-15T09:46:38;10.37;;;5.33;;
48002;SDS011;33768;48.578;11.574;2022-11-15T09:50:10;8.10;;;5.17;;
48002;SDS011;33768;48.578;11.574;2022-11-15T09:53:21;7.00;;;5.10;;
48002;SDS011;33768;48.578;11.574;2022-11-15T09:56:30;7.40;;;5.23;;
48002;SDS011;33768;48.578;11.574;2022-11-15T10:03:12;7.33;;;4.43;;
48002;SDS011;33768;48.578;11.574;2022-11-15T10:06:23;6.37;;;5.07;;
48002;SDS011;33768;48.578;11.574;2022-11-15T10:09:31;5.27;;;4.57;;
48002;SDS011;33768;48.578;11.574;2022-11-15T10:12:56;4.80;;;4.27;;
48002;SDS011;33768;48.578;11.574;2022-11-15T10:16:12;6.30;;;4.30;;
48002;SDS011;33768;48.578;11.574;2022-11-15T10:23:06;5.80;;;4.67;;
48002;SDS011;33768;48.578;11.574;2022-11-15T10:26:15;5.43;;;4.10;;
48002;SDS011;33768;48.578;11.574;2022-11-15T10:29:21;7.40;;;4.13;;
48002;SDS011;33768;48.578;11.574;2022-11-15T10:32:26;6.97;;;4.00;;
48002;SDS011;33768;48.578;11.574;2022-11-15T10:35:31;6.83;;;4.40;;
48002;SDS011;33768;48.578;11.574;2022-11-15T10:41:52;3.83;;;3.43;;
48002;SDS011;33768;48.578;11.574;2022-11-15T10:44:56;4.70;;;3.83;;
48002;SDS011;33768;48.578;11.574;2022-11-15T10:51:27;3.40;;;3.00;;
48002;SDS011;33768;48.578;11.574;2022-11-15T10:57:48;4.30;;;3.63;;
48002;SDS011;33768;48.578;11.574;2022-11-15T11:00:55;4.97;;;4.07;;
48002;SDS011;33768;48.578;11.574;2022-11-15T11:04:09;5.57;;;4.23;;
48002;SDS011;33768;48.578;11.574;2022-11-15T11:07:24;6.13;;;4.33;;
48002;SDS011;33768;48.578;11.574;2022-11-15T11:10:33;6.47;;;4.70;;
48002;SDS011;33768;48.578;11.574;2022-11-15T11:13:38;6.17;;;4.33;;
48002;SDS011;33768;48.578;11.574;2022-11-15T11:17:02;6.47;;;4.33;;
48002;SDS011;33768;48.578;11.574;2022-11-15T11:23:36;4.63;;;3.97;;
48002;SDS011;33768;48.578;11.574;2022-11-15T11:26:53;5.80;;;4.07;;
48002;SDS011;33768;48.578;11.574;2022-11-15T11:33:21;4.67;;;4.07;;
48002;SDS011;33768;48.578;11.574;2022-11-15T11:36:45;6.50;;;4.20;;
48002;SDS011;33768;48.578;11.574;2022-11-15T11:40:13;5.53;;;4.10;;
48002;SDS011;33768;48.578;11.574;2022-11-15T11:43:37;6.13;;;4.27;;
48002;SDS011;33768;48.578;11.574;2022-11-15T11:46:59;6.27;;;3.70;;
48002;SDS011;33768;48.578;11.574;2022-11-15T11:53:27;5.27;;;3.33;;
48002;SDS011;33768;48.578;11.574;2022-11-15T11:56:35;4.47;;;3.37;;
48002;SDS011;33768;48.578;11.574;2022-11-15T12:06:39;5.73;;;3.40;;
48002;SDS011;33768;48.578;11.574;2022-11-15T12:13:16;5.23;;;3.83;;
48002;SDS011;33768;48.578;11.574;2022-11-15T12:16:29;4.53;;;3.70;;
48002;SDS011;33768;48.578;11.574;2022-11-15T12:19:34;4.93;;;3.73;;
48002;SDS011;33768;48.578;11.574;2022-11-15T12:26:06;5.67;;;3.57;;
48002;SDS011;33768;48.578;11.574;2022-11-15T12:29:16;6.13;;;3.83;;
48002;SDS011;33768;48.578;11.574;2022-11-15T12:32:28;5.57;;;3.80;;
48002;SDS011;33768;48.578;11.574;2022-11-15T12:38:57;10.57;;;5.63;;
48002;SDS011;33768;48.578;11.574;2022-11-15T12:45:24;5.33;;;4.23;;
48002;SDS011;33768;48.578;11.574;2022-11-15T12:54:50;8.40;;;5.87;;
48002;SDS011;33768;48.578;11.574;2022-11-15T12:58:19;6.00;;;4.43;;
48002;SDS011;33768;48.578;11.574;2022-11-15T13:04:38;6.27;;;4.57;;
48002;SDS011;33768;48.578;11.574;2022-11-15T13:10:46;6.00;;;4.23;;
48002;SDS011;33768;48.578;11.574;2022-11-15T13:13:50;7.43;;;4.20;;
48002;SDS011;33768;48.578;11.574;2022-11-15T13:16:58;5.97;;;5.20;;
48002;SDS011;33768;48.578;11.574;2022-11-15T13:23:11;5.90;;;4.40;;
48002;SDS011;33768;48.578;11.574;2022-11-15T13:26:19;5.50;;;4.20;;
48002;SDS011;33768;48.578;11.574;2022-11-15T13:29:24;8.93;;;4.70;;
48002;SDS011;33768;48.578;11.574;2022-11-15T13:32:29;6.23;;;4.10;;
48002;SDS011;33768;48.578;11.574;2022-11-15T13:35:33;5.30;;;4.40;;
48002;SDS011;33768;48.578;11.574;2022-11-15T13:38:43;5.73;;;4.20;;
48002;SDS011;33768;48.578;11.574;2022-11-15T13:41:47;15.40;;;4.40;;
48002;SDS011;33768;48.578;11.574;2022-11-15T13:44:57;8.47;;;4.13;;
48002;SDS011;33768;48.578;11.574;2022-11-15T13:48:02;5.07;;;3.93;;
48002;SDS011;33768;48.578;11.574;2022-11-15T13:51:50;5.90;;;4.13;;
48002;SDS011;33768;48.578;11.574;2022-11-15T13:54:39;5.53;;;4.03;;
48002;SDS011;33768;48.578;11.574;2022-11-15T13:57:48;5.23;;;3.80;;
48002;SDS011;33768;48.578;11.574;2022-11-15T14:00:58;5.53;;;3.93;;
48002;SDS011;33768;48.578;11.574;2022-11-15T14:04:04;4.47;;;4.03;;
48002;SDS011;33768;48.578;11.574;2022-11-15T14:07:14;7.43;;;4.70;;
48002;SDS011;33768;48.578;11.574;2022-11-15T14:10:39;11.17;;;4.50;;
48002;SDS011;33768;48.578;11.574;2022-11-15T14:17:19;10.63;;;4.63;;
48002;SDS011;33768;48.578;11.574;2022-11-15T14:20:44;5.53;;;4.13;;
48002;SDS011;33768;48.578;11.574;2022-11-15T14:23:48;5.60;;;4.30;;
48002;SDS011;33768;48.578;11.574;2022-11-15T14:26:52;4.90;;;3.80;;
48002;SDS011;33768;48.578;11.574;2022-11-15T14:29:56;6.13;;;4.70;;
48002;SDS011;33768;48.578;11.574;2022-11-15T14:33:01;6.57;;;4.70;;
48002;SDS011;33768;48.578;11.574;2022-11-15T14:36:10;6.27;;;4.33;;
48002;SDS011;33768;48.578;11.574;2022-11-15T14:39:23;4.47;;;3.87;;
48002;SDS011;33768;48.578;11.574;2022-11-15T14:42:28;9.87;;;4.40;;
48002;SDS011;33768;48.578;11.574;2022-11-15T14:45:32;7.83;;;4.17;;
48002;SDS011;33768;48.578;11.574;2022-11-15T14:48:36;8.40;;;4.53;;
48002;SDS011;33768;48.578;11.574;2022-11-15T14:51:40;7.73;;;4.40;;
48002;SDS011;33768;48.578;11.574;2022-11-15T14:54:45;7.53;;;4.20;;
48002;SDS011;33768;48.578;11.574;2022-11-15T14:57:49;5.87;;;4.63;;
48002;SDS011;33768;48.578;11.574;2022-11-15T15:00:54;8.00;;;4.87;;
48002;SDS011;33768;48.578;11.574;2022-11-15T15:03:58;6.27;;;4.87;;
48002;SDS011;33768;48.578;11.574;2022-11-15T15:07:03;5.60;;;4.30;;
48002;SDS011;33768;48.578;11.574;2022-11-15T15:10:07;6.23;;;3.93;;
48002;SDS011;33768;48.578;11.574;2022-11-15T15:13:15;5.97;;;4.07;;
48002;SDS011;33768;48.578;11.574;2022-11-15T15:16:21;6.97;;;4.30;;
48002;SDS011;33768;48.578;11.574;2022-11-15T15:19:25;6.50;;;3.67;;
48002;SDS011;33768;48.578;11.574;2022-11-15T15:22:29;6.57;;;3.83;;
48002;SDS011;33768;48.578;11.574;2022-11-15T15:25:34;6.67;;;4.70;;
48002;SDS011;33768;48.578;11.574;2022-11-15T15:28:38;5.50;;;4.40;;
48002;SDS011;33768;48.578;11.574;2022-11-15T15:31:43;8.33;;;4.47;;
48002;SDS011;33768;48.578;11.574;2022-11-15T15:34:47;5.77;;;4.77;;
48002;SDS011;33768;48.578;11.574;2022-11-15T15:37:51;10.43;;;4.50;;
48002;SDS011;33768;48.578;11.574;2022-11-15T15:40:55;5.00;;;4.13;;
48002;SDS011;33768;48.578;11.574;2022-11-15T15:43:59;6.33;;;4.70;;
48002;SDS011;33768;48.578;11.574;2022-11-15T15:47:09;6.10;;;4.70;;
48002;SDS011;33768;48.578;11.574;2022-11-15T15:50:29;7.13;;;4.63;;
48002;SDS011;33768;48.578;11.574;2022-11-15T15:53:35;5.67;;;4.20;;
48002;SDS011;33768;48.578;11.574;2022-11-15T15:56:40;6.87;;;4.63;;
48002;SDS011;33768;48.578;11.574;2022-11-15T15:59:43;6.63;;;4.23;;
48002;SDS011;33768;48.578;11.574;2022-11-15T16:02:48;5.53;;;4.17;;
48002;SDS011;33768;48.578;11.574;2022-11-15T16:05:52;6.03;;;4.50;;
48002;SDS011;33768;48.578;11.574;2022-11-15T16:08:57;6.83;;;4.97;;
48002;SDS011;33768;48.578;11.574;2022-11-15T16:12:01;10.77;;;5.93;;
48002;SDS011;33768;48.578;11.574;2022-11-15T16:15:05;9.33;;;6.33;;
48002;SDS011;33768;48.578;11.574;2022-11-15T16:18:15;11.13;;;5.90;;
48002;SDS011;33768;48.578;11.574;2022-11-15T16:21:20;9.97;;;5.50;;
48002;SDS011;33768;48.578;11.574;2022-11-15T16:24:24;10.63;;;7.43;;
48002;SDS011;33768;48.578;11.574;2022-11-15T16:27:28;11.23;;;7.33;;
48002;SDS011;33768;48.578;11.574;2022-11-15T16:30:32;10.43;;;6.77;;
48002;SDS011;33768;48.578;11.574;2022-11-15T16:33:36;8.27;;;5.60;;
48002;SDS011;33768;48.578;11.574;2022-11-15T16:36:41;11.83;;;5.47;;
48002;SDS011;33768;48.578;11.574;2022-11-15T16:39:46;8.70;;;5.83;;
48002;SDS011;33768;48.578;11.574;2022-11-15T16:42:50;8.53;;;5.90;;
48002;SDS011;33768;48.578;11.574;2022-11-15T16:45:54;7.83;;;5.67;;
48002;SDS011;33768;48.578;11.574;2022-11-15T16:48:58;7.93;;;5.73;;
48002;SDS011;33768;48.578;11.574;2022-11-15T16:52:02;6.37;;;4.90;;
48002;SDS011;33768;48.578;11.574;2022-11-15T16:55:06;6.20;;;4.67;;
48002;SDS011;33768;48.578;11.574;2022-11-15T16:58:11;6.73;;;4.83;;
48002;SDS011;33768;48.578;11.574;2022-11-15T17:01:19;8.30;;;4.60;;
48002;SDS011;33768;48.578;11.574;2022-11-15T17:04:26;8.73;;;4.63;;
48002;SDS011;33768;48.578;11.574;2022-11-15T17:07:41;8.60;;;5.27;;
48002;SDS011;33768;48.578;11.574;2022-11-15T17:10:53;8.13;;;5.10;;
48002;SDS011;33768;48.578;11.574;2022-11-15T17:14:01;10.80;;;4.73;;
48002;SDS011;33768;48.578;11.574;2022-11-15T17:17:05;8.30;;;5.27;;
48002;SDS011;33768;48.578;11.574;2022-11-15T17:20:13;6.87;;;5.23;;
48002;SDS011;33768;48.578;11.574;2022-11-15T17:23:19;7.27;;;4.90;;
48002;SDS011;33768;48.578;11.574;2022-11-15T17:26:23;6.30;;;5.07;;
48002;SDS011;33768;48.578;11.574;2022-11-15T17:29:27;7.60;;;5.00;;
48002;SDS011;33768;48.578;11.574;2022-11-15T17:32:36;7.73;;;6.00;;
48002;SDS011;33768;48.578;11.574;2022-11-15T17:35:40;7.30;;;5.50;;
48002;SDS011;33768;48.578;11.574;2022-11-15T17:38:44;9.43;;;5.67;;
48002;SDS011;33768;48.578;11.574;2022-11-15T17:41:53;7.60;;;5.60;;
48002;SDS011;33768;48.578;11.574;2022-11-15T17:44:57;7.50;;;6.17;;
48002;SDS011;33768;48.578;11.574;2022-11-15T17:48:01;8.50;;;6.00;;
48002;SDS011;33768;48.578;11.574;2022-11-15T17:51:07;7.73;;;5.93;;
48002;SDS011;33768;48.578;11.574;2022-11-15T17:54:14;9.17;;;6.43;;
48002;SDS011;33768;48.578;11.574;2022-11-15T17:57:18;10.03;;;6.73;;
48002;SDS011;33768;48.578;11.574;2022-11-15T18:00:22;8.27;;;5.83;;
48002;SDS011;33768;48.578;11.574;2022-11-15T18:03:26;9.00;;;6.90;;
48002;SDS011;33768;48.578;11.574;2022-11-15T18:06:31;11.87;;;7.07;;
48002;SDS011;33768;48.578;11.574;2022-11-15T18:09:37;13.10;;;8.00;;
48002;SDS011;33768;48.578;11.574;2022-11-15T18:12:45;10.53;;;7.43;;
48002;SDS011;33768;48.578;11.574;2022-11-15T18:15:53;9.10;;;6.60;;
48002;SDS011;33768;48.578;11.574;2022-11-15T18:18:59;10.87;;;7.40;;
48002;SDS011;33768;48.578;11.574;2022-11-15T18:22:03;9.43;;;6.97;;
48002;SDS011;33768;48.578;11.574;2022-11-15T18:25:08;12.83;;;6.93;;
48002;SDS011;33768;48.578;11.574;2022-11-15T18:28:12;10.77;;;7.43;;
48002;SDS011;33768;48.578;11.574;2022-11-15T18:34:21;11.67;;;8.03;;
48002;SDS011;33768;48.578;11.574;2022-11-15T18:37:26;12.50;;;8.30;;
48002;SDS011;33768;48.578;11.574;2022-11-15T18:40:30;13.07;;;9.70;;
48002;SDS011;33768;48.578;11.574;2022-11-15T18:43:35;17.13;;;11.90;;
48002;SDS011;33768;48.578;11.574;2022-11-15T18:46:39;15.23;;;10.17;;
48002;SDS011;33768;48.578;11.574;2022-11-15T18:49:43;9.57;;;7.30;;
48002;SDS011;33768;48.578;11.574;2022-11-15T18:52:48;14.27;;;10.70;;
48002;SDS011;33768;48.578;11.574;2022-11-15T18:55:52;13.33;;;9.27;;
48002;SDS011;33768;48.578;11.574;2022-11-15T18:58:57;11.03;;;7.80;;
48002;SDS011;33768;48.578;11.574;2022-11-15T19:02:02;9.17;;;7.03;;
48002;SDS011;33768;48.578;11.574;2022-11-15T19:05:06;8.63;;;7.20;;
48002;SDS011;33768;48.578;11.574;2022-11-15T19:08:11;11.57;;;7.03;;
48002;SDS011;33768;48.578;11.574;2022-11-15T19:11:17;11.80;;;7.40;;
48002;SDS011;33768;48.578;11.574;2022-11-15T19:14:24;10.20;;;7.30;;
48002;SDS011;33768;48.578;11.574;2022-11-15T19:17:29;11.57;;;7.47;;
48002;SDS011;33768;48.578;11.574;2022-11-15T19:20:37;11.80;;;7.53;;
48002;SDS011;33768;48.578;11.574;2022-11-15T19:23:41;9.87;;;7.37;;
48002;SDS011;33768;48.578;11.574;2022-11-15T19:26:46;11.17;;;7.47;;
48002;SDS011;33768;48.578;11.574;2022-11-15T19:29:50;10.63;;;7.63;;
48002;SDS011;33768;48.578;11.574;2022-11-15T19:32:55;10.93;;;7.60;;
48002;SDS011;33768;48.578;11.574;2022-11-15T19:36:03;10.37;;;7.33;;
48002;SDS011;33768;48.578;11.574;2022-11-15T19:39:10;8.23;;;6.73;;
48002;SDS011;33768;48.578;11.574;2022-11-15T19:42:16;13.30;;;6.97;;
48002;SDS011;33768;48.578;11.574;2022-11-15T19:45:20;8.23;;;6.17;;
48002;SDS011;33768;48.578;11.574;2022-11-15T19:48:24;9.40;;;7.10;;
48002;SDS011;33768;48.578;11.574;2022-11-15T19:51:29;10.03;;;7.60;;
48002;SDS011;33768;48.578;11.574;2022-11-15T19:54:33;10.57;;;7.40;;
48002;SDS011;33768;48.578;11.574;2022-11-15T19:57:38;12.67;;;7.80;;
48002;SDS011;33768;48.578;11.574;2022-11-15T20:00:42;9.67;;;7.53;;
48002;SDS011;33768;48.578;11.574;2022-11-15T20:03:47;10.13;;;7.80;;
48002;SDS011;33768;48.578;11.574;2022-11-15T20:06:52;12.03;;;7.87;;
48002;SDS011;33768;48.578;11.574;2022-11-15T20:09:56;11.27;;;7.60;;
48002;SDS011;33768;48.578;11.574;2022-11-15T20:13:00;10.73;;;6.83;;
48002;SDS011;33768;48.578;11.574;2022-11-15T20:16:04;7.97;;;6.80;;
48002;SDS011;33768;48.578;11.574;2022-11-15T20:19:09;10.93;;;7.13;;
48002;SDS011;33768;48.578;11.574;2022-11-15T20:22:15;10.30;;;6.83;;
48002;SDS011;33768;48.578;11.574;2022-11-15T20:25:19;8.87;;;6.73;;
48002;SDS011;33768;48.578;11.574;2022-11-15T20:28:24;9.43;;;6.20;;
48002;SDS011;33768;48.578;11.574;2022-11-15T20:31:30;8.70;;;6.50;;
48002;SDS011;33768;48.578;11.574;2022-11-15T20:34:36;9.00;;;6.67;;
48002;SDS011;33768;48.578;11.574;2022-11-15T20:37:40;10.13;;;7.30;;
48002;SDS011;33768;48.578;11.574;2022-11-15T20:40:44;11.13;;;6.83;;